createdAt,value
2022-12-27T00:00:14.926Z,101936.50
2022-12-27T00:02:43.509Z,101947.00
2022-12-27T00:05:13.432Z,101932.75
2022-12-27T00:07:41.727Z,101928.34
2022-12-27T00:10:12.065Z,101918.72
2022-12-27T00:12:40.343Z,101919.84
2022-12-27T00:15:09.073Z,101921.03
2022-12-27T00:17:37.450Z,101929.19
2022-12-27T00:20:11.243Z,101921.16
2022-12-27T00:22:41.508Z,101906.13
2022-12-27T00:25:10.546Z,101913.34
2022-12-27T00:27:39.269Z,101928.53
2022-12-27T00:30:08.648Z,101924.09
2022-12-27T00:32:37.079Z,101924.03
2022-12-27T00:35:05.739Z,101915.94
2022-12-27T00:37:34.215Z,101928.34
2022-12-27T00:40:02.514Z,101934.63
2022-12-27T00:42:30.895Z,101941.13
2022-12-27T00:44:59.246Z,101925.53
2022-12-27T00:47:27.728Z,101917.66
2022-12-27T00:49:56.115Z,101917.56
2022-12-27T00:52:24.561Z,101938.66
2022-12-27T00:54:52.899Z,101957.34
2022-12-27T00:57:21.192Z,101954.84
2022-12-27T00:59:49.879Z,101947.84
2022-12-27T01:02:20.786Z,101951.50
2022-12-27T01:04:49.154Z,101952.38
2022-12-27T01:07:17.629Z,101952.38
2022-12-27T01:09:46.313Z,101948.78
2022-12-27T01:12:14.614Z,101955.69
2022-12-27T01:14:43.026Z,101958.22
2022-12-27T01:17:11.374Z,101958.97
2022-12-27T01:19:40.750Z,101951.84
2022-12-27T01:22:09.050Z,101942.03
2022-12-27T01:24:37.406Z,101945.63
2022-12-27T01:27:05.742Z,101938.47
2022-12-27T01:29:34.357Z,101927.78
2022-12-27T01:32:02.748Z,101933.84
2022-12-27T01:34:31.118Z,101931.00
2022-12-27T01:36:59.584Z,101921.91
2022-12-27T01:39:27.951Z,101928.81
2022-12-27T01:42:14.750Z,101918.09
2022-12-27T01:44:52.591Z,101908.38
2022-12-27T01:47:33.090Z,101890.88
2022-12-27T01:50:25.089Z,101869.72
2022-12-27T01:53:04.488Z,101863.41
2022-12-27T01:55:44.661Z,101872.31
2022-12-27T01:58:29.129Z,101875.88
2022-12-27T02:00:58.893Z,101886.03
2022-12-27T02:03:40.682Z,101874.03
2022-12-27T02:06:12.456Z,101888.41
2022-12-27T02:08:50.274Z,101887.59
2022-12-27T02:11:40.725Z,101886.75
2022-12-27T02:14:10.130Z,101883.16
2022-12-27T02:16:38.441Z,101889.47
2022-12-27T02:19:25.770Z,101874.53
2022-12-27T02:22:16.659Z,101870.13
2022-12-27T02:25:07.671Z,101855.00
2022-12-27T02:27:47.955Z,101871.09
2022-12-27T02:30:16.636Z,101854.38
2022-12-27T02:33:08.633Z,101822.38
2022-12-27T02:35:48.345Z,101824.69
2022-12-27T02:38:29.511Z,101830.66
2022-12-27T02:41:18.633Z,101830.78
2022-12-27T02:44:05.531Z,101802.69
2022-12-27T02:46:52.817Z,101795.88
2022-12-27T02:50:00.085Z,101780.94
2022-12-27T02:53:11.769Z,101811.09
2022-12-27T02:56:21.804Z,101812.75
2022-12-27T02:59:13.462Z,101826.66
2022-12-27T03:02:47.464Z,101822.25
2022-12-27T03:06:08.649Z,101834.69
2022-12-27T03:08:48.290Z,101840.81
2022-12-27T03:11:35.810Z,101836.28
2022-12-27T03:14:46.913Z,101843.25
2022-12-27T03:17:27.570Z,101830.72
2022-12-27T03:20:21.290Z,101813.88
2022-12-27T03:23:11.546Z,101802.44
2022-12-27T03:25:43.961Z,101794.47
2022-12-27T03:28:35.540Z,101798.81
2022-12-27T03:31:48.586Z,101776.81
2022-12-27T03:34:33.359Z,101780.41
2022-12-27T03:37:24.700Z,101793.59
2022-12-27T03:40:01.432Z,101774.09
2022-12-27T03:42:51.142Z,101757.19
2022-12-27T03:45:42.904Z,101757.00
2022-12-27T03:48:13.262Z,101751.63
2022-12-27T03:50:52.015Z,101738.00
2022-12-27T03:53:39.719Z,101735.28
2022-12-27T03:56:09.592Z,101737.06
2022-12-27T03:58:37.882Z,101764.53
2022-12-27T04:01:06.226Z,101731.84
2022-12-27T04:03:34.618Z,101709.63
2022-12-27T04:06:02.905Z,101702.38
2022-12-27T04:08:50.439Z,101685.47
2022-12-27T04:11:37.510Z,101666.97
2022-12-27T04:14:23.864Z,101653.84
2022-12-27T04:17:10.314Z,101653.03
2022-12-27T04:19:56.819Z,101646.81
2022-12-27T04:22:43.249Z,101634.47
2022-12-27T04:25:29.813Z,101637.94
2022-12-27T04:28:16.330Z,101625.53
2022-12-27T04:31:02.807Z,101628.09
2022-12-27T04:33:49.377Z,101615.72
2022-12-27T04:36:17.943Z,101630.59
2022-12-27T04:38:46.190Z,101626.19
2022-12-27T04:41:32.810Z,101620.66
2022-12-27T04:44:19.227Z,101624.72
2022-12-27T04:47:06.136Z,101638.63
2022-12-27T04:49:54.765Z,101694.22
2022-12-27T04:52:43.678Z,101700.38
2022-12-27T04:55:22.429Z,101705.63
2022-12-27T04:57:51.808Z,101703.63
2022-12-27T05:00:40.597Z,101709.56
2022-12-27T05:03:13.943Z,101687.31
2022-12-27T05:05:44.446Z,101668.59
2022-12-27T05:08:34.204Z,101651.66
2022-12-27T05:11:21.781Z,101633.06
2022-12-27T05:14:02.363Z,101609.94
2022-12-27T05:16:38.816Z,101632.00
2022-12-27T05:19:08.511Z,101641.66
2022-12-27T05:22:02.259Z,101634.56
2022-12-27T05:24:50.547Z,101621.28
2022-12-27T05:27:19.121Z,101616.75
2022-12-27T05:29:48.476Z,101614.94
2022-12-27T05:32:16.810Z,101637.06
2022-12-27T05:34:45.086Z,101645.88
2022-12-27T05:37:13.347Z,101628.16
2022-12-27T05:39:41.841Z,101595.34
2022-12-27T05:42:10.067Z,101607.72
2022-12-27T05:44:38.358Z,101597.84
2022-12-27T05:47:06.637Z,101606.69
2022-12-27T05:49:34.875Z,101604.81
2022-12-27T05:52:03.100Z,101602.94
2022-12-27T05:54:31.415Z,101608.25
2022-12-27T05:56:59.730Z,101610.84
2022-12-27T05:59:28.012Z,101594.91
2022-12-27T06:01:56.400Z,101617.84
2022-12-27T06:04:24.797Z,101603.66
2022-12-27T06:06:53.020Z,101588.47
2022-12-27T06:09:21.287Z,101571.53
2022-12-27T06:11:49.960Z,101559.06
2022-12-27T06:14:18.213Z,101546.53
2022-12-27T06:16:46.692Z,101548.34
2022-12-27T06:19:15.063Z,101548.28
2022-12-27T06:21:43.368Z,101545.47
2022-12-27T06:24:11.819Z,101547.94
2022-12-27T06:26:40.123Z,101547.81
2022-12-27T06:29:08.373Z,101533.59
2022-12-27T06:31:36.756Z,101541.41
2022-12-27T06:34:05.931Z,101557.19
2022-12-27T06:36:34.237Z,101541.16
2022-12-27T06:39:02.684Z,101541.94
2022-12-27T06:41:30.919Z,101554.19
2022-12-27T06:43:59.854Z,101552.34
2022-12-27T06:46:28.433Z,101550.44
2022-12-27T06:48:56.693Z,101545.13
2022-12-27T06:51:25.026Z,101551.28
2022-12-27T06:53:53.425Z,101512.31
2022-12-27T06:56:24.341Z,101494.47
2022-12-27T06:58:53.478Z,101498.06
2022-12-27T07:01:26.195Z,101537.88
2022-12-27T07:04:01.682Z,101523.53
2022-12-27T07:06:32.122Z,101524.59
2022-12-27T07:09:02.464Z,101503.25
2022-12-27T07:11:34.152Z,101503.16
2022-12-27T07:14:03.216Z,101516.38
2022-12-27T07:16:32.614Z,101505.66
2022-12-27T07:19:01.197Z,101511.03
2022-12-27T07:21:30.357Z,101541.97
2022-12-27T07:23:58.871Z,101547.16
2022-12-27T07:26:30.751Z,101540.97
2022-12-27T07:29:01.615Z,101530.25
2022-12-27T07:31:33.063Z,101501.00
2022-12-27T07:34:03.602Z,101485.06
2022-12-27T07:36:36.706Z,101488.69
2022-12-27T07:39:05.984Z,101476.16
2022-12-27T07:41:34.268Z,101479.56
2022-12-27T07:44:03.092Z,101477.63
2022-12-27T07:46:31.540Z,101457.28
2022-12-27T07:49:00.525Z,101464.25
2022-12-27T07:51:29.773Z,101438.44
2022-12-27T07:53:58.175Z,101430.44
2022-12-27T07:56:28.289Z,101425.94
2022-12-27T07:58:58.491Z,101400.19
2022-12-27T08:01:28.801Z,101393.84
2022-12-27T08:03:57.393Z,101390.31
2022-12-27T08:06:28.333Z,101405.34
2022-12-27T08:08:58.975Z,101413.22
2022-12-27T08:11:31.051Z,101360.75
2022-12-27T08:13:59.659Z,101368.63
2022-12-27T08:16:28.547Z,101380.03
2022-12-27T08:18:56.986Z,101387.91
2022-12-27T08:21:25.210Z,101390.47
2022-12-27T08:23:53.481Z,101367.34
2022-12-27T08:26:21.792Z,101364.50
2022-12-27T08:28:50.102Z,101338.84
2022-12-27T08:31:18.449Z,101330.88
2022-12-27T08:33:46.794Z,101308.66
2022-12-27T08:36:53.572Z,101329.00
2022-12-27T08:39:03.931Z,101312.16
2022-12-27T08:41:32.274Z,101310.28
2022-12-27T08:44:00.536Z,101312.84
2022-12-27T08:46:28.898Z,101306.56
2022-12-27T08:48:57.168Z,101327.75
2022-12-27T08:51:34.251Z,101315.34
2022-12-27T08:54:04.268Z,101280.84
2022-12-27T08:56:32.611Z,101291.41
2022-12-27T08:59:00.965Z,101286.00
2022-12-27T09:01:29.856Z,101270.03
2022-12-27T09:03:58.240Z,101244.38
2022-12-27T09:06:28.539Z,101236.31
2022-12-27T09:08:57.338Z,101223.00
2022-12-27T09:11:28.913Z,101235.38
2022-12-27T09:13:59.147Z,101201.63
2022-12-27T09:16:29.158Z,101204.41
2022-12-27T09:18:59.902Z,101201.84
2022-12-27T09:21:31.158Z,101212.47
2022-12-27T09:24:00.319Z,101198.31
2022-12-27T09:26:31.085Z,101190.34
2022-12-27T09:29:00.763Z,101179.81
2022-12-27T09:31:30.239Z,101187.78
2022-12-27T09:33:59.420Z,101219.69
2022-12-27T09:36:30.012Z,101216.16
2022-12-27T09:38:59.755Z,101200.31
2022-12-27T09:45:10.343Z,101182.75
2022-12-27T09:48:03.300Z,101168.59
2022-12-27T09:50:37.820Z,101166.88
2022-12-27T09:53:20.332Z,101187.28
2022-12-27T09:55:53.363Z,101185.47
2022-12-27T09:58:40.148Z,101170.31
2022-12-27T10:01:21.418Z,101154.34
2022-12-27T10:03:50.028Z,101157.94
2022-12-27T10:06:39.672Z,101164.13
2022-12-27T10:09:26.662Z,101183.59
2022-12-27T10:12:02.320Z,101200.41
2022-12-27T10:14:43.213Z,101198.41
2022-12-27T10:17:39.538Z,101173.38
2022-12-27T10:20:32.016Z,101157.97
2022-12-27T10:23:06.614Z,101153.47
2022-12-27T10:25:37.103Z,101168.31
2022-12-27T10:28:19.225Z,101154.72
2022-12-27T10:30:47.511Z,101121.84
2022-12-27T10:33:36.808Z,101149.88
2022-12-27T10:36:11.381Z,101140.75
2022-12-27T10:38:39.637Z,101133.53
2022-12-27T10:41:44.804Z,101159.00
2022-12-27T10:44:13.739Z,101145.78
2022-12-27T10:46:45.650Z,101132.28
2022-12-27T10:49:33.099Z,101137.41
2022-12-27T10:52:33.008Z,101138.28
2022-12-27T10:55:01.307Z,101143.72
2022-12-27T10:57:34.330Z,101109.97
2022-12-27T11:00:23.197Z,101108.03
2022-12-27T11:02:57.079Z,101118.97
2022-12-27T11:05:28.465Z,101096.28
2022-12-27T11:07:56.314Z,101112.44
2022-12-27T11:10:31.608Z,101123.97
2022-12-27T11:13:04.997Z,101114.25
2022-12-27T11:15:36.768Z,101132.00
2022-12-27T11:18:19.793Z,101103.53
2022-12-27T11:20:55.891Z,101099.03
2022-12-27T11:23:28.124Z,101117.56
2022-12-27T11:26:08.008Z,101124.59
2022-12-27T11:28:40.372Z,101121.00
2022-12-27T11:31:14.124Z,101112.03
2022-12-27T11:33:54.388Z,101084.59
2022-12-27T11:36:33.303Z,101121.75
2022-12-27T11:39:02.111Z,101113.88
2022-12-27T11:41:51.048Z,101117.38
2022-12-27T11:44:28.021Z,101104.25
2022-12-27T11:47:27.936Z,101122.03
2022-12-27T11:50:16.053Z,101092.69
2022-12-27T11:52:47.408Z,101106.72
2022-12-27T11:55:25.421Z,101116.63
2022-12-27T11:57:53.881Z,101140.47
2022-12-27T12:00:24.579Z,101140.56
2022-12-27T12:03:20.227Z,101133.31
2022-12-27T12:06:34.710Z,101130.56
2022-12-27T12:09:19.580Z,101133.44
2022-12-27T12:11:58.211Z,101107.59
2022-12-27T12:14:47.607Z,101113.88
2022-12-27T12:17:55.874Z,101111.00
2022-12-27T12:20:50.506Z,101131.44
2022-12-27T12:23:56.338Z,101142.09
2022-12-27T12:26:27.303Z,101138.66
2022-12-27T12:29:27.129Z,101137.91
2022-12-27T12:32:13.721Z,101132.69
2022-12-27T12:34:53.021Z,101127.25
2022-12-27T12:37:46.550Z,101140.56
2022-12-27T12:40:59.357Z,101165.25
2022-12-27T12:43:57.741Z,101156.63
2022-12-27T12:46:44.159Z,101162.69
2022-12-27T12:49:27.293Z,101151.22
2022-12-27T12:52:25.871Z,101148.34
2022-12-27T12:55:26.844Z,101162.50
2022-12-27T12:58:04.011Z,101160.81
2022-12-27T13:00:51.106Z,101175.91
2022-12-27T13:03:56.577Z,101166.88
2022-12-27T13:06:42.982Z,101171.44
2022-12-27T13:09:38.553Z,101191.97
2022-12-27T13:12:18.126Z,101203.38
2022-12-27T13:15:21.829Z,101189.97
2022-12-27T13:18:30.452Z,101195.41
2022-12-27T13:21:02.164Z,101173.25
2022-12-27T13:24:02.970Z,101150.16
2022-12-27T13:26:44.800Z,101176.69
2022-12-27T13:30:06.069Z,101173.81
2022-12-27T13:33:02.593Z,101159.56
2022-12-27T13:35:45.760Z,101125.94
2022-12-27T13:38:24.515Z,101129.72
2022-12-27T13:41:18.661Z,101121.53
2022-12-27T13:44:01.835Z,101117.09
2022-12-27T13:47:07.095Z,101117.00
2022-12-27T13:50:01.290Z,101158.78
2022-12-27T13:52:32.392Z,101157.00
2022-12-27T13:55:00.488Z,101143.81
2022-12-27T13:58:00.665Z,101134.94
2022-12-27T14:00:40.465Z,101136.56
2022-12-27T14:03:40.099Z,101124.00
2022-12-27T14:06:38.297Z,101126.47
2022-12-27T14:09:30.110Z,101143.94
2022-12-27T14:12:10.840Z,101129.81
2022-12-27T14:14:42.395Z,101136.06
2022-12-27T14:17:33.698Z,101140.34
2022-12-27T14:20:31.359Z,101159.81
2022-12-27T14:23:26.866Z,101149.84
2022-12-27T14:26:00.702Z,101168.69
2022-12-27T14:28:59.934Z,101162.47
2022-12-27T14:32:05.493Z,101193.88
2022-12-27T14:34:48.691Z,101183.31
2022-12-27T14:37:44.269Z,101182.34
2022-12-27T14:40:39.916Z,101161.06
2022-12-27T14:43:32.373Z,101116.91
2022-12-27T14:46:39.574Z,101132.75
2022-12-27T14:49:26.215Z,101149.66
2022-12-27T14:52:31.392Z,101158.41
2022-12-27T14:55:11.887Z,101171.81
2022-12-27T14:58:07.642Z,101163.47
2022-12-27T15:01:01.846Z,101170.09
2022-12-27T15:03:51.889Z,101126.66
2022-12-27T15:06:51.143Z,101140.72
2022-12-27T15:09:36.127Z,101103.38
2022-12-27T15:12:37.943Z,101122.63
2022-12-27T15:15:21.216Z,101150.88
2022-12-27T15:18:28.206Z,101127.75
2022-12-27T15:21:08.055Z,101084.53
2022-12-27T15:24:00.660Z,101072.94
2022-12-27T15:26:31.849Z,101135.31
2022-12-27T15:29:24.827Z,101155.72
2022-12-27T15:32:22.162Z,101161.03
2022-12-27T15:35:08.638Z,101147.94
2022-12-27T15:37:48.890Z,101158.56
2022-12-27T15:40:36.098Z,101185.88
2022-12-27T15:43:13.233Z,101190.31
2022-12-27T15:46:02.620Z,101134.25
2022-12-27T15:48:39.263Z,101119.56
2022-12-27T15:51:33.964Z,101128.78
2022-12-27T15:54:30.532Z,101124.03
2022-12-27T15:57:20.404Z,101119.97
2022-12-27T15:59:53.699Z,101118.66
2022-12-27T16:02:50.331Z,101123.97
2022-12-27T16:05:21.394Z,101084.13
2022-12-27T16:07:54.295Z,101084.97
2022-12-27T16:10:48.678Z,101061.69
2022-12-27T16:13:42.977Z,101062.16
2022-12-27T16:16:40.926Z,101070.88
2022-12-27T16:19:11.980Z,101084.09
2022-12-27T16:21:47.444Z,101082.06
2022-12-27T16:24:23.328Z,101105.75
2022-12-27T16:26:55.595Z,101141.13
2022-12-27T16:29:33.337Z,101169.38
2022-12-27T16:32:21.765Z,101176.31
2022-12-27T16:34:52.875Z,101173.75
2022-12-27T16:37:30.782Z,101183.53
2022-12-27T16:40:19.097Z,101191.41
2022-12-27T16:43:22.321Z,101193.03
2022-12-27T16:46:13.173Z,101204.53
2022-12-27T16:49:23.920Z,101197.41
2022-12-27T16:52:09.898Z,101207.09
2022-12-27T16:55:08.343Z,101199.88
2022-12-27T16:57:45.789Z,101178.56
2022-12-27T17:00:44.446Z,101176.84
2022-12-27T17:03:30.981Z,101173.13
2022-12-27T17:09:11.425Z,101193.28
2022-12-27T17:11:51.629Z,101191.25
2022-12-27T17:14:22.411Z,101176.06
2022-12-27T17:16:55.005Z,101172.97
2022-12-27T17:19:30.540Z,101169.06
2022-12-27T17:22:04.367Z,101157.41
2022-12-27T17:24:32.937Z,101163.63
2022-12-27T17:27:23.735Z,101198.16
2022-12-27T17:30:12.519Z,101223.09
2022-12-27T17:32:49.946Z,101236.31
2022-12-27T17:35:29.178Z,101244.28
2022-12-27T17:38:22.106Z,101244.41
2022-12-27T17:41:15.515Z,101250.78
2022-12-27T17:44:41.729Z,101248.88
2022-12-27T17:47:50.954Z,101259.53
2022-12-27T17:50:24.808Z,101270.31
2022-12-27T17:53:29.780Z,101272.97
2022-12-27T17:56:29.579Z,101285.63
2022-12-27T17:59:30.018Z,101291.63
2022-12-27T18:02:07.990Z,101290.84
2022-12-27T18:04:39.571Z,101284.88
2022-12-27T18:07:14.048Z,101275.16
2022-12-27T18:09:51.937Z,101281.53
2022-12-27T18:12:26.848Z,101266.63
2022-12-27T18:15:00.216Z,101268.50
2022-12-27T18:18:14.649Z,101275.75
2022-12-27T18:20:53.000Z,101273.19
2022-12-27T18:23:21.355Z,101275.00
2022-12-27T18:25:58.461Z,101261.66
2022-12-27T18:28:46.479Z,101246.47
2022-12-27T18:32:12.675Z,101235.69
2022-12-27T18:34:55.490Z,101238.38
2022-12-27T18:37:25.966Z,101244.53
2022-12-27T18:40:23.435Z,101253.50
2022-12-27T18:42:58.412Z,101243.69
2022-12-27T18:45:38.921Z,101247.22
2022-12-27T18:48:14.163Z,101251.59
2022-12-27T18:51:14.696Z,101258.53
2022-12-27T18:54:06.560Z,101260.22
2022-12-27T18:56:38.528Z,101246.16
2022-12-27T18:59:26.734Z,101247.97
2022-12-27T19:02:00.493Z,101243.69
2022-12-27T19:04:51.632Z,101248.09
2022-12-27T19:07:27.461Z,101246.16
2022-12-27T19:10:19.711Z,101250.53
2022-12-27T19:13:21.399Z,101251.38
2022-12-27T19:16:13.413Z,101238.47
2022-12-27T19:21:41.258Z,101231.72
2022-12-27T19:24:37.907Z,101246.00
2022-12-27T19:27:33.339Z,101254.94
2022-12-27T19:30:02.188Z,101259.41
2022-12-27T19:32:35.477Z,101258.56
2022-12-27T19:35:08.784Z,101276.22
2022-12-27T19:37:52.410Z,101277.13
2022-12-27T19:43:20.463Z,101290.44
2022-12-27T19:53:13.571Z,101311.84
2022-12-27T20:00:22.008Z,101272.94
2022-12-27T20:03:21.827Z,101264.94
2022-12-27T20:06:24.170Z,101256.00
2022-12-27T20:09:22.829Z,101255.91
2022-12-27T20:12:29.814Z,101264.09
2022-12-27T20:15:18.297Z,101278.34
2022-12-27T20:18:18.006Z,101280.06
2022-12-27T20:20:50.893Z,101265.97
2022-12-27T20:23:22.524Z,101266.75
2022-12-27T20:26:16.296Z,101271.97
2022-12-27T20:32:09.651Z,101230.78
2022-12-27T20:34:45.449Z,101229.72
2022-12-27T20:37:22.662Z,101225.06
2022-12-27T20:40:24.789Z,101237.97
2022-12-27T20:43:19.365Z,101230.63
2022-12-27T20:45:48.616Z,101214.44
2022-12-27T20:48:19.936Z,101218.81
2022-12-27T20:51:28.341Z,101217.75
2022-12-27T20:54:17.609Z,101206.78
2022-12-27T20:56:54.775Z,101215.66
2022-12-27T20:59:23.574Z,101204.00
2022-12-27T21:09:21.620Z,101207.34
2022-12-27T21:12:24.973Z,101224.06
2022-12-27T21:15:42.806Z,101249.56
2022-12-27T21:21:20.308Z,101245.09
2022-12-27T21:24:12.878Z,101226.44
2022-12-27T21:26:56.374Z,101227.50
2022-12-27T21:29:26.401Z,101245.28
2022-12-27T21:32:20.926Z,101223.97
2022-12-27T21:35:18.260Z,101224.19
2022-12-27T21:37:49.532Z,101210.00
2022-12-27T21:40:22.396Z,101211.84
2022-12-27T21:42:56.959Z,101217.91
2022-12-27T21:45:25.333Z,101219.72
2022-12-27T21:50:46.746Z,101230.50
2022-12-27T21:53:21.375Z,101235.16
2022-12-27T21:55:49.769Z,101241.44
2022-12-27T21:58:18.279Z,101246.84
2022-12-27T22:00:52.408Z,101248.69
2022-12-27T22:03:24.544Z,101239.84
2022-12-27T22:05:54.803Z,101223.75
2022-12-27T22:08:23.129Z,101217.53
2022-12-27T22:11:12.210Z,101220.09
2022-12-27T22:13:49.809Z,101220.97
2022-12-27T22:16:23.845Z,101229.91
2022-12-27T22:18:53.042Z,101237.06
2022-12-27T22:21:25.049Z,101243.25
2022-12-27T22:26:51.560Z,101231.84
2022-12-27T22:29:22.844Z,101240.69
2022-12-27T22:31:51.202Z,101233.75
2022-12-27T22:34:25.475Z,101224.81
2022-12-27T22:36:54.154Z,101212.63
2022-12-27T22:39:22.454Z,101204.75
2022-12-27T22:41:53.869Z,101204.75
2022-12-27T22:44:23.079Z,101203.91
2022-12-27T22:47:24.603Z,101188.84
2022-12-27T22:49:51.770Z,101187.91
2022-12-27T22:52:22.937Z,101193.44
2022-12-27T22:55:05.442Z,101211.31
2022-12-27T22:57:54.214Z,101202.59
2022-12-27T23:00:22.593Z,101197.47
2022-12-27T23:02:53.785Z,101201.06
2022-12-27T23:05:22.123Z,101194.81
2022-12-27T23:08:05.782Z,101207.16
2022-12-27T23:10:35.865Z,101201.06
2022-12-27T23:13:23.839Z,101197.47
2022-12-27T23:16:23.419Z,101203.63
2022-12-27T23:19:25.865Z,101204.78
2022-12-27T23:21:54.268Z,101218.09
2022-12-27T23:24:25.465Z,101224.28
2022-12-27T23:46:30.933Z,101249.69
2022-12-27T23:49:09.594Z,101241.91
2022-12-27T23:51:37.901Z,101218.72
2022-12-27T23:54:23.791Z,101225.63
2022-12-27T23:56:52.154Z,101235.53
2022-12-27T23:59:23.419Z,101238.19
